Time;durP1;ratioP1;P1;durP2;ratioP2;P2;SDS_P1;SDS_P2;PMS_P1;PMS_P2;Temp;Humidity;BMP_temperature;BMP_pressure;BME280_temperature;BME280_humidity;BME280_pressure;Samples;Min_cycle;Max_cycle;Signal;HPM_P1;HPM_P2
2023/01/09 00:02:21;;;;;;;1.63;0.70;;;;;;;6.58;100.00;99316.16;5233109;28;20492;-75
2023/01/09 00:04:52;;;;;;;1.40;0.50;;;;;;;6.61;100.00;99310.75;5217530;28;20052;-75
2023/01/09 00:07:24;;;;;;;2.37;0.67;;;;;;;6.66;100.00;99319.06;5234205;28;20028;-73
2023/01/09 00:09:55;;;;;;;1.63;0.70;;;;;;;6.61;100.00;99306.38;5234633;28;20097;-75
2023/01/09 00:12:26;;;;;;;1.40;0.80;;;;;;;6.65;100.00;99322.59;5234751;28;20112;-75
2023/01/09 00:14:58;;;;;;;3.23;0.60;;;;;;;6.61;100.00;99327.19;5235364;28;20029;-75
2023/01/09 00:17:30;;;;;;;1.83;0.70;;;;;;;6.50;100.00;99327.91;5214950;28;20033;-76
2023/01/09 00:20:02;;;;;;;1.40;0.50;;;;;;;6.53;100.00;99329.47;5232887;28;20038;-74
2023/01/09 00:22:33;;;;;;;1.53;0.63;;;;;;;6.46;100.00;99326.44;5214400;28;20408;-74
2023/01/09 00:25:05;;;;;;;1.37;0.57;;;;;;;6.50;100.00;99334.88;5233612;28;20037;-75
2023/01/09 00:27:36;;;;;;;2.40;0.70;;;;;;;6.44;100.00;99336.13;5233673;28;20037;-76
2023/01/09 00:30:08;;;;;;;1.63;0.60;;;;;;;6.42;100.00;99338.00;5217282;28;20025;-75
2023/01/09 00:32:40;;;;;;;1.37;0.90;;;;;;;6.38;100.00;99346.94;5234782;28;20033;-75
2023/01/09 00:35:15;;;;;;;1.87;0.50;;;;;;;6.35;100.00;99341.94;5232935;28;20040;-74
2023/01/09 00:37:46;;;;;;;1.30;0.60;;;;;;;6.33;100.00;99339.44;5233178;28;20061;-76
2023/01/09 00:40:18;;;;;;;2.13;0.60;;;;;;;6.24;100.00;99325.28;5217188;28;20061;-74
2023/01/09 00:42:54;;;;;;;2.47;0.70;;;;;;;6.19;100.00;99340.34;5235366;28;20550;-76
2023/01/09 00:45:28;;;;;;;1.73;0.80;;;;;;;6.14;100.00;99329.44;5234406;28;20461;-75
2023/01/09 00:48:08;;;;;;;2.77;0.77;;;;;;;6.09;100.00;99332.31;5235441;28;20025;-75
2023/01/09 00:50:39;;;;;;;1.57;0.87;;;;;;;6.17;100.00;99344.81;5233458;28;20061;-75
2023/01/09 00:53:17;;;;;;;2.33;1.20;;;;;;;6.10;100.00;99333.16;5234152;28;20111;-74
2023/01/09 00:55:50;;;;;;;1.83;0.70;;;;;;;6.08;100.00;99340.22;5235000;28;20029;-75
2023/01/09 00:58:21;;;;;;;2.63;0.60;;;;;;;6.13;100.00;99348.53;5233429;28;20191;-75
2023/01/09 01:00:53;;;;;;;1.60;1.00;;;;;;;5.99;100.00;99321.66;5234514;28;20116;-75
2023/01/09 01:03:24;;;;;;;4.57;1.40;;;;;;;6.07;100.00;99341.16;5229927;28;20036;-75
2023/01/09 01:08:46;;;;;;;2.40;1.03;;;;;;;5.90;100.00;99343.06;5232101;28;20399;-75
2023/01/09 01:11:17;;;;;;;4.57;1.17;;;;;;;5.74;100.00;99320.66;5233518;28;20033;-76
2023/01/09 01:13:49;;;;;;;2.20;0.90;;;;;;;5.85;100.00;99339.94;5234309;28;20029;-75
2023/01/09 01:16:20;;;;;;;2.33;0.97;;;;;;;5.75;100.00;99331.88;5215824;28;20876;-75
2023/01/09 01:18:51;;;;;;;3.00;1.00;;;;;;;5.92;100.00;99351.56;5233775;28;20092;-76
2023/01/09 01:21:23;;;;;;;4.13;1.40;;;;;;;5.84;100.00;99349.50;5215730;28;20058;-75
2023/01/09 01:23:54;;;;;;;2.33;0.73;;;;;;;5.87;100.00;99351.03;5234044;28;20492;-76
2023/01/09 01:26:25;;;;;;;4.43;0.97;;;;;;;5.86;100.00;99357.19;5234121;28;20029;-76
2023/01/09 01:29:00;;;;;;;4.87;1.20;;;;;;;5.83;100.00;99359.97;5217630;28;20067;-75
2023/01/09 01:31:31;;;;;;;3.03;0.90;;;;;;;5.79;100.00;99360.19;5234200;28;20080;-75
2023/01/09 01:34:02;;;;;;;3.57;1.03;;;;;;;5.79;100.00;99354.97;5234209;28;20025;-75
2023/01/09 01:36:34;;;;;;;2.63;0.80;;;;;;;5.84;100.00;99365.06;5231964;28;20258;-76
2023/01/09 01:39:05;;;;;;;3.70;0.80;;;;;;;5.79;100.00;99367.97;5233424;28;20028;-75
2023/01/09 01:41:37;;;;;;;2.83;1.20;;;;;;;5.78;100.00;99361.09;5232509;28;20044;-73
2023/01/09 01:44:45;;;;;;;2.77;0.80;;;;;;;5.77;100.00;99363.78;5234692;28;20511;-75
2023/01/09 01:47:19;;;;;;;6.03;1.30;;;;;;;5.70;100.00;99376.34;5233440;28;20032;-75
2023/01/09 01:49:51;;;;;;;5.47;1.10;;;;;;;5.49;100.00;99347.34;5233869;28;20030;-75
2023/01/09 01:52:24;;;;;;;4.20;0.97;;;;;;;5.57;100.00;99378.84;5231410;28;20029;-76
2023/01/09 01:54:55;;;;;;;3.47;1.17;;;;;;;5.63;100.00;99382.84;5233036;28;20057;-75
2023/01/09 01:57:26;;;;;;;3.87;1.10;;;;;;;5.51;100.00;99376.66;5229619;28;20029;-76
2023/01/09 02:00:01;;;;;;;1.20;0.77;;;;;;;5.51;100.00;99363.69;5234136;28;20022;-75
2023/01/09 02:02:33;;;;;;;4.40;1.73;;;;;;;5.48;100.00;99374.25;5232177;28;20021;-75
2023/01/09 02:05:05;;;;;;;5.23;0.97;;;;;;;5.51;100.00;99377.50;5227596;28;20083;-76
2023/01/09 02:07:36;;;;;;;2.47;0.97;;;;;;;5.43;100.00;99369.34;5216824;28;20025;-75
2023/01/09 02:10:08;;;;;;;4.10;0.93;;;;;;;5.35;100.00;99368.97;5232306;28;20040;-73
2023/01/09 02:12:39;;;;;;;5.50;1.20;;;;;;;5.27;100.00;99367.69;5232429;28;20515;-76
2023/01/09 02:15:13;;;;;;;2.57;1.23;;;;;;;5.41;100.00;99379.00;5233218;28;20026;-76
2023/01/09 02:17:47;;;;;;;3.78;1.20;;;;;;;5.46;100.00;99382.16;5231082;28;20092;-77
2023/01/09 02:20:39;;;;;;;3.60;1.10;;;;;;;5.43;100.00;99387.50;5232180;28;20039;-76
2023/01/09 02:23:19;;;;;;;3.33;1.33;;;;;;;5.45;100.00;99377.88;5230575;28;20040;-76
2023/01/09 02:26:34;;;;;;;4.73;1.30;;;;;;;5.42;100.00;99376.31;5231433;28;20060;-75
2023/01/09 02:29:35;;;;;;;4.03;1.87;;;;;;;5.40;100.00;99374.72;5233121;28;20720;-76
2023/01/09 02:32:19;;;;;;;5.63;1.30;;;;;;;5.38;100.00;99374.81;5215752;28;20116;-77
2023/01/09 02:35:08;;;;;;;2.63;1.20;;;;;;;5.36;100.00;99376.66;5215593;28;20033;-75
2023/01/09 02:37:48;;;;;;;2.80;1.03;;;;;;;5.33;100.00;99366.47;5231947;28;20443;-75
2023/01/09 02:40:46;;;;;;;2.97;1.40;;;;;;;5.40;100.00;99372.97;5232414;28;20082;-75
2023/01/09 02:43:18;;;;;;;5.03;1.23;;;;;;;5.24;100.00;99370.47;5232622;28;20448;-73
2023/01/09 02:45:49;;;;;;;5.33;1.60;;;;;;;5.29;100.00;99373.63;5214126;28;20052;-73
2023/01/09 02:48:21;;;;;;;5.77;1.60;;;;;;;5.25;100.00;99368.72;5233347;28;20399;-73
2023/01/09 02:51:07;;;;;;;2.37;1.13;;;;;;;5.28;100.00;99364.19;5234163;28;20021;-76
2023/01/09 02:54:11;;;;;;;8.17;2.03;;;;;;;5.26;100.00;99373.81;5214532;28;20144;-77
2023/01/09 02:56:54;;;;;;;5.33;1.27;;;;;;;5.23;100.00;99365.38;5232762;28;20066;-77
2023/01/09 02:59:59;;;;;;;5.00;1.70;;;;;;;5.19;100.00;99357.78;5232472;28;20090;-75
2023/01/09 03:02:46;;;;;;;6.13;1.30;;;;;;;5.25;100.00;99350.56;5231800;28;20037;-77
2023/01/09 03:05:28;;;;;;;3.70;1.40;;;;;;;5.18;100.00;99343.13;5230805;28;20064;-76
2023/01/09 03:08:19;;;;;;;2.53;1.10;;;;;;;5.17;100.00;99346.66;5230586;28;20025;-77
2023/01/09 03:11:01;;;;;;;4.43;1.43;;;;;;;5.18;100.00;99337.94;5215186;28;20034;-76
2023/01/09 03:13:38;;;;;;;7.03;1.50;;;;;;;5.19;100.00;99351.75;5233047;28;20408;-75
2023/01/09 03:16:14;;;;;;;7.20;1.90;;;;;;;5.15;100.00;99350.28;5237135;28;20080;-77
2023/01/09 03:18:48;;;;;;;5.23;1.80;;;;;;;5.14;100.00;99352.03;5219679;28;20099;-77
2023/01/09 03:21:21;;;;;;;8.07;2.53;;;;;;;5.07;100.00;99361.97;5235099;28;20029;-75
2023/01/09 03:23:54;;;;;;;7.37;2.20;;;;;;;5.10;100.00;99362.72;5237135;28;20029;-77
2023/01/09 03:26:27;;;;;;;5.03;1.70;;;;;;;5.03;100.00;99370.84;5216231;28;20026;-75
2023/01/09 03:28:59;;;;;;;6.15;1.60;;;;;;;4.93;100.00;99352.44;5236930;28;20065;-77
2023/01/09 03:31:31;;;;;;;5.17;2.00;;;;;;;5.02;100.00;99373.56;5218310;28;20075;-76
2023/01/09 03:34:02;;;;;;;12.57;2.53;;;;;;;4.94;100.00;99363.66;5234833;28;20091;-77
2023/01/09 03:36:33;;;;;;;4.70;1.87;;;;;;;5.00;100.00;99363.25;5233863;28;20715;-76
2023/01/09 03:39:04;;;;;;;4.17;2.20;;;;;;;4.94;100.00;99368.84;5235052;28;20512;-77
2023/01/09 03:41:36;;;;;;;6.33;2.00;;;;;;;5.02;100.00;99361.41;5217488;28;20029;-77
2023/01/09 03:44:07;;;;;;;4.17;1.50;;;;;;;4.95;100.00;99360.13;5235997;28;20038;-77
2023/01/09 03:46:38;;;;;;;7.93;2.17;;;;;;;4.88;100.00;99366.59;5233249;28;20099;-77
2023/01/09 03:49:10;;;;;;;4.00;1.40;;;;;;;4.93;100.00;99360.22;5226993;28;20630;-77
2023/01/09 03:51:41;;;;;;;9.03;1.50;;;;;;;4.90;100.00;99354.38;5232299;28;20037;-76
2023/01/09 03:54:12;;;;;;;6.23;1.33;;;;;;;4.94;100.00;99359.28;5212837;28;20130;-76
2023/01/09 03:56:44;;;;;;;8.70;2.87;;;;;;;4.92;100.00;99357.72;5227731;28;20484;-74
2023/01/09 03:59:15;;;;;;;4.57;1.40;;;;;;;4.94;100.00;99369.66;5231433;28;20448;-75
2023/01/09 04:01:47;;;;;;;8.43;1.90;;;;;;;4.97;100.00;99366.88;5234605;28;20040;-76
2023/01/09 04:04:18;;;;;;;9.37;1.70;;;;;;;4.94;100.00;99364.47;5233907;28;20025;-75
2023/01/09 04:06:49;;;;;;;5.73;2.10;;;;;;;4.80;100.00;99346.31;5215845;28;20048;-74
2023/01/09 04:09:21;;;;;;;5.83;1.70;;;;;;;4.89;100.00;99363.06;5236163;28;20033;-75
2023/01/09 04:11:52;;;;;;;8.50;1.97;;;;;;;4.91;100.00;99362.06;5236065;28;20029;-75
2023/01/09 04:14:23;;;;;;;5.03;1.80;;;;;;;4.90;100.00;99367.34;5235086;28;20048;-75
2023/01/09 04:16:55;;;;;;;6.70;2.03;;;;;;;4.91;100.00;99363.81;5235716;28;20049;-76
2023/01/09 04:19:26;;;;;;;7.23;1.70;;;;;;;5.01;100.00;99379.69;5234841;28;20061;-74
2023/01/09 04:21:57;;;;;;;5.83;2.13;;;;;;;4.99;100.00;99366.81;5235057;28;20026;-76
2023/01/09 04:24:30;;;;;;;9.73;1.97;;;;;;;5.03;100.00;99367.41;5233405;28;20068;-76
2023/01/09 04:27:02;;;;;;;6.77;1.70;;;;;;;4.96;100.00;99365.22;5235673;28;20041;-77
2023/01/09 04:29:33;;;;;;;4.70;1.77;;;;;;;4.99;100.00;99363.38;5233905;28;20048;-75
2023/01/09 04:32:04;;;;;;;7.60;2.47;;;;;;;5.05;100.00;99368.16;5234285;28;20488;-75
2023/01/09 04:34:36;;;;;;;4.37;1.87;;;;;;;5.11;100.00;99369.56;5234494;28;20034;-76
2023/01/09 04:37:07;;;;;;;7.43;2.23;;;;;;;5.13;100.00;99365.13;5233993;28;20022;-76
2023/01/09 04:39:42;;;;;;;12.90;1.80;;;;;;;5.17;100.00;99361.38;5234977;28;20032;-75
2023/01/09 04:42:13;;;;;;;8.37;2.07;;;;;;;5.18;100.00;99378.66;5235867;28;20083;-76
2023/01/09 04:44:44;;;;;;;5.30;1.33;;;;;;;5.13;100.00;99365.94;5228468;28;20033;-75
2023/01/09 04:47:15;;;;;;;6.53;1.67;;;;;;;5.17;100.00;99369.19;5215354;28;20018;-76
2023/01/09 04:49:47;;;;;;;10.37;1.60;;;;;;;5.18;100.00;99368.28;5215748;28;20034;-76
2023/01/09 04:52:18;;;;;;;8.40;2.00;;;;;;;5.16;100.00;99359.75;5216763;28;20021;-74
2023/01/09 04:54:50;;;;;;;7.20;1.70;;;;;;;5.24;100.00;99372.22;5236011;28;20030;-77
2023/01/09 04:57:21;;;;;;;12.23;2.07;;;;;;;5.19;100.00;99364.72;5235449;28;20121;-76
2023/01/09 04:59:52;;;;;;;7.13;2.33;;;;;;;5.27;100.00;99370.28;5235761;28;20040;-77
2023/01/09 05:02:23;;;;;;;7.73;1.87;;;;;;;5.29;100.00;99352.00;5235208;28;20029;-76
2023/01/09 05:04:55;;;;;;;9.63;2.17;;;;;;;5.29;100.00;99355.44;5235882;28;20029;-74
2023/01/09 05:07:26;;;;;;;7.67;1.93;;;;;;;5.31;100.00;99363.97;5233985;28;20032;-76
2023/01/09 05:09:57;;;;;;;12.27;1.97;;;;;;;5.35;100.00;99359.44;5235584;28;20080;-77
2023/01/09 05:12:28;;;;;;;10.83;2.23;;;;;;;5.36;100.00;99366.28;5235205;28;20112;-76
2023/01/09 05:15:00;;;;;;;9.60;1.80;;;;;;;5.33;100.00;99359.53;5234424;28;20035;-76
2023/01/09 05:17:31;;;;;;;10.10;2.70;;;;;;;5.39;100.00;99370.47;5233527;28;20048;-75
2023/01/09 05:20:03;;;;;;;9.47;2.67;;;;;;;5.40;100.00;99362.59;5233965;28;20116;-76
2023/01/09 05:22:34;;;;;;;6.70;1.77;;;;;;;5.38;100.00;99358.41;5234016;28;20024;-76
2023/01/09 05:25:06;;;;;;;10.03;2.33;;;;;;;5.43;100.00;99357.19;5216400;28;20503;-74
2023/01/09 05:27:37;;;;;;;10.77;3.57;;;;;;;5.43;100.00;99353.75;5234027;28;20108;-77
2023/01/09 05:30:09;;;;;;;13.63;2.63;;;;;;;5.46;100.00;99356.19;5232160;28;20030;-77
2023/01/09 05:32:41;;;;;;;7.40;2.27;;;;;;;5.49;100.00;99352.53;5234972;28;20769;-75
2023/01/09 05:35:12;;;;;;;9.80;2.00;;;;;;;5.51;100.00;99358.47;5215770;28;20025;-76
2023/01/09 05:37:43;;;;;;;8.30;1.90;;;;;;;5.37;100.00;99328.19;5233527;28;20033;-76
2023/01/09 05:40:15;;;;;;;5.80;1.60;;;;;;;5.54;100.00;99350.50;5230819;28;20080;-76
2023/01/09 05:42:46;;;;;;;12.33;1.97;;;;;;;5.54;100.00;99353.94;5211817;28;20026;-74
2023/01/09 05:45:18;;;;;;;7.67;2.23;;;;;;;5.55;100.00;99355.59;5228916;28;20033;-75
2023/01/09 05:47:49;;;;;;;8.20;2.23;;;;;;;5.41;100.00;99321.88;5233387;28;20039;-76
2023/01/09 05:50:20;;;;;;;9.27;2.17;;;;;;;5.50;100.00;99329.06;5215770;28;20236;-77
2023/01/09 05:52:52;;;;;;;6.73;2.03;;;;;;;5.47;100.00;99329.28;5233445;28;20120;-74
2023/01/09 05:55:23;;;;;;;8.53;1.80;;;;;;;5.59;100.00;99339.81;5216481;28;20029;-76
2023/01/09 05:57:54;;;;;;;6.73;2.30;;;;;;;5.59;100.00;99334.59;5232445;28;20034;-77
2023/01/09 06:00:26;;;;;;;13.77;2.67;;;;;;;5.66;100.00;99338.50;5231984;28;20116;-77
2023/01/09 06:02:57;;;;;;;9.57;2.73;;;;;;;5.68;100.00;99339.22;5215444;28;20029;-77
2023/01/09 06:05:29;;;;;;;9.50;2.40;;;;;;;5.68;100.00;99337.47;5214682;28;20104;-77
2023/01/09 06:08:00;;;;;;;9.70;2.37;;;;;;;5.71;100.00;99344.22;5232511;28;20459;-76
2023/01/09 06:10:31;;;;;;;11.40;3.17;;;;;;;5.69;100.00;99336.53;5231280;28;20052;-74
2023/01/09 06:13:02;;;;;;;13.47;3.03;;;;;;;5.67;100.00;99325.41;5215123;28;20152;-76
2023/01/09 06:15:34;;;;;;;8.40;1.87;;;;;;;5.76;100.00;99344.75;5233485;28;20051;-75
2023/01/09 06:18:05;;;;;;;14.40;3.33;;;;;;;5.74;100.00;99323.25;5233110;28;20029;-76
2023/01/09 06:20:37;;;;;;;6.87;2.13;;;;;;;5.72;100.00;99324.28;5232863;28;20484;-75
2023/01/09 06:23:08;;;;;;;11.57;2.00;;;;;;;5.76;100.00;99323.97;5231535;28;20044;-76
2023/01/09 06:25:39;;;;;;;9.33;2.70;;;;;;;5.76;100.00;99333.56;5232621;28;20134;-75
2023/01/09 06:28:11;;;;;;;8.97;1.90;;;;;;;5.86;100.00;99339.00;5233058;28;20119;-75
2023/01/09 06:30:42;;;;;;;10.50;2.57;;;;;;;5.75;100.00;99324.94;5232110;28;20025;-75
2023/01/09 06:33:13;;;;;;;11.00;2.17;;;;;;;5.89;100.00;99339.63;5233019;28;20029;-74
2023/01/09 06:35:44;;;;;;;13.37;3.27;;;;;;;5.80;100.00;99325.47;5232673;28;20088;-75
2023/01/09 06:38:16;;;;;;;9.50;2.40;;;;;;;5.89;100.00;99346.56;5232907;28;20044;-76
2023/01/09 06:40:47;;;;;;;8.70;1.90;;;;;;;5.93;100.00;99348.06;5227578;28;20461;-75
2023/01/09 06:43:18;;;;;;;10.40;2.00;;;;;;;5.95;100.00;99361.78;5230129;28;20033;-75
2023/01/09 06:45:50;;;;;;;6.90;1.93;;;;;;;6.00;100.00;99357.13;5204812;28;20524;-74
2023/01/09 06:48:23;;;;;;;7.50;2.30;;;;;;;6.00;100.00;99338.09;5229811;28;20036;-75
2023/01/09 06:50:55;;;;;;;10.20;2.83;;;;;;;5.96;100.00;99332.25;5231763;28;20037;-77
2023/01/09 06:53:26;;;;;;;13.97;2.23;;;;;;;5.95;100.00;99334.97;5232090;28;20087;-75
2023/01/09 06:55:58;;;;;;;7.60;1.70;;;;;;;6.03;100.00;99343.94;5231359;28;20028;-76
2023/01/09 06:58:29;;;;;;;9.50;1.97;;;;;;;6.08;100.00;99351.44;5232229;28;20049;-76
2023/01/09 07:01:00;;;;;;;8.10;1.63;;;;;;;6.07;100.00;99349.81;5230059;28;20025;-75
2023/01/09 07:03:32;;;;;;;9.50;2.07;;;;;;;6.05;100.00;99346.47;5229147;28;20641;-76
2023/01/09 07:06:04;;;;;;;7.47;2.40;;;;;;;6.06;100.00;99348.13;5231037;28;20112;-76
2023/01/09 07:08:35;;;;;;;4.77;1.63;;;;;;;6.13;100.00;99364.13;5230354;28;20029;-73
2023/01/09 07:11:06;;;;;;;6.23;1.60;;;;;;;6.15;100.00;99370.06;5201998;28;20105;-75
2023/01/09 07:13:37;;;;;;;6.13;2.33;;;;;;;6.20;100.00;99374.97;5229827;28;20041;-76
2023/01/09 07:16:09;;;;;;;9.20;2.70;;;;;;;6.17;100.00;99381.22;5229807;28;20041;-77
2023/01/09 07:18:40;;;;;;;10.50;3.17;;;;;;;6.07;100.00;99367.16;5232237;28;20037;-76
2023/01/09 07:21:11;;;;;;;9.37;2.23;;;;;;;6.09;100.00;99383.50;5227859;28;20037;-75
2023/01/09 07:23:43;;;;;;;9.17;1.97;;;;;;;6.12;100.00;99385.88;5232352;28;20147;-77
2023/01/09 07:26:14;;;;;;;7.53;1.80;;;;;;;6.10;100.00;99398.13;5213357;28;20030;-76
2023/01/09 07:28:45;;;;;;;12.17;2.30;;;;;;;6.03;100.00;99388.13;5231660;28;20025;-77
2023/01/09 07:31:17;;;;;;;8.73;2.00;;;;;;;6.04;100.00;99386.34;5214252;28;20034;-76
2023/01/09 07:33:48;;;;;;;10.33;2.10;;;;;;;6.07;100.00;99406.13;5233309;28;20021;-76
2023/01/09 07:36:19;;;;;;;9.80;2.50;;;;;;;6.07;100.00;99424.34;5227903;28;20257;-77
2023/01/09 07:38:51;;;;;;;6.57;1.87;;;;;;;5.98;100.00;99412.72;5215511;28;20033;-76
2023/01/09 07:41:22;;;;;;;6.87;1.87;;;;;;;5.98;100.00;99413.56;5230633;28;20109;-76
2023/01/09 07:43:53;;;;;;;10.90;2.17;;;;;;;5.96;100.00;99415.44;5233098;28;20017;-76
2023/01/09 07:46:25;;;;;;;12.90;2.70;;;;;;;5.99;100.00;99424.78;5212408;28;20040;-76
2023/01/09 07:48:56;;;;;;;7.07;1.53;;;;;;;5.94;100.00;99419.88;5229968;28;20435;-76
2023/01/09 07:51:27;;;;;;;10.00;2.00;;;;;;;5.98;100.00;99423.97;5232052;28;20396;-76
2023/01/09 07:53:58;;;;;;;8.57;1.90;;;;;;;6.00;100.00;99429.91;5231355;28;20476;-76
2023/01/09 07:56:30;;;;;;;11.07;3.83;;;;;;;5.95;100.00;99428.53;5230845;28;20032;-74
2023/01/09 07:59:01;;;;;;;9.77;2.87;;;;;;;6.02;100.00;99433.22;5233662;28;20632;-74
2023/01/09 08:01:32;;;;;;;9.03;2.03;;;;;;;6.02;100.00;99442.81;5235241;28;20373;-74
2023/01/09 08:04:04;;;;;;;7.43;2.27;;;;;;;6.05;100.00;99445.22;5235797;28;20500;-76
2023/01/09 08:06:35;;;;;;;6.07;1.90;;;;;;;6.02;100.00;99456.59;5235441;28;20033;-75
2023/01/09 08:09:06;;;;;;;8.33;2.70;;;;;;;6.02;100.00;99461.00;5235418;28;20036;-74
2023/01/09 08:11:38;;;;;;;8.07;2.20;;;;;;;6.01;100.00;99462.75;5235633;28;20116;-75
2023/01/09 08:14:09;;;;;;;8.93;2.07;;;;;;;5.84;100.00;99437.81;5235076;28;20558;-74
2023/01/09 08:16:40;;;;;;;9.17;2.53;;;;;;;5.97;100.00;99465.66;5236392;28;20091;-74
2023/01/09 08:19:12;;;;;;;7.03;2.30;;;;;;;5.97;100.00;99463.88;5235856;28;20038;-74
2023/01/09 08:21:43;;;;;;;7.43;2.73;;;;;;;6.04;100.00;99472.09;5234776;28;20079;-74
2023/01/09 08:24:14;;;;;;;6.60;1.90;;;;;;;6.02;100.00;99481.78;5236102;28;20112;-73
2023/01/09 08:26:46;;;;;;;8.77;2.00;;;;;;;5.98;100.00;99485.50;5235117;28;20033;-73
2023/01/09 08:29:17;;;;;;;9.07;3.17;;;;;;;5.97;100.00;99484.66;5235973;28;20034;-74
2023/01/09 08:31:48;;;;;;;7.60;2.20;;;;;;;5.85;100.00;99469.84;5236251;28;20033;-75
2023/01/09 08:34:19;;;;;;;8.70;2.93;;;;;;;5.97;100.00;99491.63;5234970;28;20048;-73
2023/01/09 08:36:52;;;;;;;10.37;2.63;;;;;;;5.99;100.00;99515.75;5235233;28;20038;-74
2023/01/09 08:39:23;;;;;;;10.03;2.30;;;;;;;5.97;100.00;99513.25;5235524;28;20443;-75
2023/01/09 08:47:35;;;;;;;6.97;2.27;;;;;;;5.99;100.00;99520.94;5236158;28;20037;-77
2023/01/09 08:50:07;;;;;;;7.40;2.30;;;;;;;5.96;100.00;99527.19;5235468;28;20026;-79
2023/01/09 08:52:38;;;;;;;6.50;2.57;;;;;;;5.96;100.00;99532.38;5234539;28;20380;-73
2023/01/09 08:55:12;;;;;;;16.47;4.27;;;;;;;5.97;100.00;99544.44;5230257;28;20109;-77
2023/01/09 08:57:49;;;;;;;9.35;2.30;;;;;;;5.95;100.00;99535.06;5234701;28;20068;-74
2023/01/09 09:00:22;;;;;;;12.17;3.20;;;;;;;5.92;100.00;99549.91;5235806;28;20389;-74
2023/01/09 09:02:56;;;;;;;8.23;2.73;;;;;;;5.98;100.00;99564.31;5216754;28;20022;-74
2023/01/09 09:05:29;;;;;;;5.03;2.80;;;;;;;5.95;100.00;99566.25;5234183;28;20026;-74
2023/01/09 09:08:02;;;;;;;9.13;2.33;;;;;;;5.90;100.00;99554.38;5234846;28;20054;-74
2023/01/09 09:10:34;;;;;;;7.30;2.67;;;;;;;5.94;100.00;99573.22;5233963;28;20029;-76
2023/01/09 09:13:05;;;;;;;7.87;2.93;;;;;;;5.97;100.00;99577.41;5234458;28;20083;-71
2023/01/09 09:15:37;;;;;;;7.20;1.83;;;;;;;5.96;100.00;99581.75;5234971;28;20491;-77
2023/01/09 09:18:09;;;;;;;6.00;2.40;;;;;;;5.94;100.00;99594.00;5234395;28;20457;-71
2023/01/09 09:20:40;;;;;;;14.20;3.40;;;;;;;5.92;100.00;99588.06;5233829;28;20028;-74
2023/01/09 09:23:11;;;;;;;6.60;2.60;;;;;;;5.93;100.00;99594.94;5234370;28;20354;-71
2023/01/09 09:25:43;;;;;;;6.13;2.07;;;;;;;5.93;100.00;99597.53;5234230;28;20400;-73
2023/01/09 09:28:14;;;;;;;8.03;2.60;;;;;;;5.92;100.00;99604.50;5234083;28;20028;-82
2023/01/09 09:30:45;;;;;;;6.73;2.23;;;;;;;5.97;100.00;99612.00;5235165;28;20447;-71
2023/01/09 09:33:17;;;;;;;7.10;2.03;;;;;;;5.91;100.00;99604.59;5234473;28;20059;-81
2023/01/09 09:35:48;;;;;;;9.47;2.40;;;;;;;5.93;100.00;99613.94;5234992;28;20061;-85
2023/01/09 09:38:19;;;;;;;14.43;2.83;;;;;;;5.97;100.00;99625.00;5234848;28;20087;-80
2023/01/09 09:44:41;;;;;;;7.50;2.70;;;;;;;6.00;100.00;99632.63;5233459;28;20116;-76
2023/01/09 09:44:52;;;;;;;9.47;2.37;;;;;;;6.01;100.00;99636.88;5231354;28;20030;-74
2023/01/09 09:47:42;;;;;;;9.10;2.93;;;;;;;5.95;100.00;99637.28;5231536;28;20025;-75
2023/01/09 09:50:33;;;;;;;5.43;3.37;;;;;;;5.97;100.00;99645.78;5229787;28;20026;-76
2023/01/09 09:53:32;;;;;;;8.30;2.83;;;;;;;6.01;100.00;99662.03;5232911;28;20537;-76
2023/01/09 09:56:06;;;;;;;8.53;3.10;;;;;;;5.98;100.00;99673.47;5231622;28;20025;-73
2023/01/09 09:58:42;;;;;;;9.40;3.70;;;;;;;6.02;100.00;99680.13;5214415;28;20029;-76
2023/01/09 10:01:29;;;;;;;8.93;2.53;;;;;;;6.02;100.00;99674.13;5215650;28;20033;-73
2023/01/09 10:04:05;;;;;;;9.03;3.40;;;;;;;6.04;100.00;99688.69;5234164;28;20021;-75
2023/01/09 10:06:41;;;;;;;9.77;2.77;;;;;;;5.97;100.00;99674.38;5233485;28;20033;-74
2023/01/09 10:09:42;;;;;;;13.20;5.10;;;;;;;6.11;100.00;99698.78;5233713;28;20045;-75
2023/01/09 10:12:44;;;;;;;7.97;3.37;;;;;;;6.13;100.00;99704.69;5232665;28;20091;-76
2023/01/09 10:15:18;;;;;;;9.30;3.80;;;;;;;6.10;100.00;99699.69;5215533;28;20490;-78
2023/01/09 10:18:17;;;;;;;8.82;3.90;;;;;;;6.18;100.00;99710.44;5232807;28;20128;-76
2023/01/09 10:21:21;;;;;;;11.97;4.50;;;;;;;6.14;100.00;99719.38;5210415;28;20061;-79
2023/01/09 10:24:16;;;;;;;8.83;3.77;;;;;;;6.18;100.00;99718.25;5211878;28;20145;-77
2023/01/09 10:26:51;;;;;;;6.50;4.15;;;;;;;6.21;100.00;99728.50;5212830;28;20048;-74
2023/01/09 10:29:35;;;;;;;10.63;4.03;;;;;;;6.22;100.00;99737.94;5214025;28;20046;-81
2023/01/09 10:32:15;;;;;;;13.60;4.43;;;;;;;6.25;100.00;99742.97;5212949;28;20037;-78
2023/01/09 10:35:04;;;;;;;11.23;4.77;;;;;;;6.22;100.00;99743.16;5233220;28;20076;-79
2023/01/09 10:37:45;;;;;;;12.60;4.10;;;;;;;6.19;100.00;99738.13;5233493;28;20480;-80
2023/01/09 10:40:40;;;;;;;7.53;3.37;;;;;;;6.20;100.00;99731.16;5234319;28;20017;-83
2023/01/09 10:43:28;;;;;;;12.35;4.07;;;;;;;6.23;100.00;99738.78;5233738;28;20064;-82
2023/01/09 10:46:17;;;;;;;11.93;3.10;;;;;;;6.26;100.00;99734.25;5233479;28;20033;-77
2023/01/09 10:48:53;;;;;;;9.53;4.07;;;;;;;6.21;100.00;99723.28;5233259;28;20542;-80
2023/01/09 10:51:47;;;;;;;6.83;3.10;;;;;;;6.27;100.00;99735.06;5214775;28;20026;-77
2023/01/09 10:54:22;;;;;;;10.37;3.30;;;;;;;6.23;100.00;99746.59;5232994;28;20025;-77
2023/01/09 10:57:13;;;;;;;10.87;4.03;;;;;;;6.23;100.00;99749.19;5216563;28;20017;-81
2023/01/09 10:59:44;;;;;;;8.33;3.20;;;;;;;6.10;100.00;99720.47;5232307;28;20028;-82
2023/01/09 11:02:27;;;;;;;12.90;4.37;;;;;;;6.31;100.00;99751.31;5215026;28;20026;-82
2023/01/09 11:04:59;;;;;;;8.30;3.07;;;;;;;6.40;100.00;99756.00;5231099;28;20025;-74
2023/01/09 11:07:37;;;;;;;17.10;4.57;;;;;;;6.50;100.00;99757.09;5232566;28;20085;-81
2023/01/09 11:10:11;;;;;;;7.50;3.03;;;;;;;6.46;100.00;99755.59;5232001;28;20124;-82
2023/01/09 11:12:43;;;;;;;10.88;3.65;;;;;;;6.45;100.00;99756.53;5215456;28;20029;-79
2023/01/09 11:15:27;;;;;;;7.10;3.50;;;;;;;6.33;100.00;99723.47;5233605;28;20480;-81
2023/01/09 11:18:17;;;;;;;10.30;4.63;;;;;;;6.54;100.00;99748.16;5232823;28;20050;-83
2023/01/09 11:20:48;;;;;;;10.43;3.60;;;;;;;6.60;100.00;99762.56;5230897;28;20036;-77
2023/01/09 11:23:31;;;;;;;10.00;4.30;;;;;;;6.59;100.00;99749.66;5214706;28;20022;-74
2023/01/09 11:26:02;;;;;;;9.97;4.50;;;;;;;6.67;100.00;99764.81;5233272;28;20022;-77
2023/01/09 11:28:34;;;;;;;7.33;3.77;;;;;;;6.67;100.00;99764.81;5233535;28;20029;-77
2023/01/09 11:31:05;;;;;;;10.33;4.70;;;;;;;6.68;100.00;99762.13;5233027;28;20026;-83
2023/01/09 11:33:41;;;;;;;8.67;4.23;;;;;;;6.81;100.00;99777.81;5234215;28;20029;-74
2023/01/09 11:36:14;;;;;;;8.90;4.37;;;;;;;6.81;100.00;99770.00;5236424;28;20108;-83
2023/01/09 11:38:49;;;;;;;11.23;4.83;;;;;;;6.86;100.00;99786.16;5236610;28;20037;-76
2023/01/09 11:41:31;;;;;;;11.63;4.20;;;;;;;6.86;100.00;99790.56;5236980;28;20030;-83
2023/01/09 11:44:03;;;;;;;7.33;3.60;;;;;;;6.85;100.00;99791.47;5218394;28;20380;-82
2023/01/09 11:46:42;;;;;;;10.73;3.87;;;;;;;6.90;100.00;99794.63;5236696;28;20457;-75
2023/01/09 11:49:13;;;;;;;9.93;3.77;;;;;;;6.85;100.00;99791.47;5236210;28;20087;-80
2023/01/09 11:51:45;;;;;;;12.57;4.50;;;;;;;6.86;100.00;99798.38;5218459;28;20025;-83
2023/01/09 11:54:20;;;;;;;9.37;3.93;;;;;;;6.87;100.00;99800.03;5217229;28;20025;-84
2023/01/09 11:56:51;;;;;;;;;;;;;;;6.96;100.00;99807.28;5236996;28;20601;-79
2023/01/09 11:59:29;;;;;;;19.87;4.93;;;;;;;6.89;100.00;99800.78;5237215;28;19913;-72
2023/01/09 12:02:09;;;;;;;10.57;3.90;;;;;;;6.85;100.00;99801.88;5236196;28;20018;-80
2023/01/09 12:04:49;;;;;;;11.50;4.50;;;;;;;6.80;100.00;99793.53;5218979;28;20048;-70
2023/01/09 12:07:45;;;;;;;12.93;4.23;;;;;;;6.92;100.00;99797.13;5235225;28;20044;-75
2023/01/09 12:10:50;;;;;;;17.57;4.83;;;;;;;6.92;100.00;99805.78;5235011;28;20037;-76
2023/01/09 12:13:41;;;;;;;14.43;4.03;;;;;;;6.92;100.00;99803.19;5235555;28;20533;-76
2023/01/09 12:16:40;;;;;;;7.17;3.53;;;;;;;6.94;100.00;99806.53;5232872;28;20116;-75
2023/01/09 12:19:14;;;;;;;10.20;3.50;;;;;;;6.92;100.00;99808.41;5228364;28;20465;-75